Time;durP1;ratioP1;P1;durP2;ratioP2;P2;SDS_P1;SDS_P2;PMS_P1;PMS_P2;Temp;Humidity;BMP_temperature;BMP_pressure;BME280_temperature;BME280_humidity;BME280_pressure;Samples;Min_cycle;Max_cycle;Signal;HPM_P1;HPM_P2
2022/11/18 00:01:12;;;;;;;294.40;282.33;;;7.20;99.90;;;;;;5065510;28;20031;-78
2022/11/18 00:03:38;;;;;;;284.73;273.52;;;7.20;99.90;;;;;;5040815;28;20024;-77
2022/11/18 00:06:05;;;;;;;236.32;226.80;;;7.20;99.90;;;;;;5068342;28;20036;-82
2022/11/18 00:08:31;;;;;;;277.25;266.25;;;7.10;99.90;;;;;;5033995;28;20037;-77
2022/11/18 00:10:57;;;;;;;271.58;260.80;;;7.30;99.90;;;;;;5070983;28;20025;-79
2022/11/18 00:16:09;;;;;;;208.90;200.65;;;7.40;99.90;;;;;;5054137;28;20090;-77
2022/11/18 00:18:35;;;;;;;190.57;183.48;;;7.50;99.90;;;;;;5070982;28;20056;-77
2022/11/18 00:21:02;;;;;;;238.45;228.85;;;7.30;99.90;;;;;;5051641;28;20146;-78
2022/11/18 00:23:28;;;;;;;205.52;197.68;;;7.30;99.90;;;;;;5059187;28;20036;-80
2022/11/18 00:25:54;;;;;;;195.07;187.55;;;7.20;99.90;;;;;;5060075;28;20020;-80
2022/11/18 00:28:20;;;;;;;251.38;241.32;;;7.10;99.90;;;;;;5032000;28;20040;-78
2022/11/18 00:30:45;;;;;;;237.98;228.50;;;7.20;99.90;;;;;;5067427;28;20451;-79
2022/11/18 00:33:11;;;;;;;291.05;279.17;;;7.10;99.90;;;;;;5031722;28;20110;-80
2022/11/18 00:35:37;;;;;;;275.23;261.90;;;7.10;99.90;;;;;;5066070;28;20439;-80
2022/11/18 00:38:02;;;;;;;289.80;278.05;;;7.00;99.90;;;;;;5049293;28;20106;-79
2022/11/18 00:40:28;;;;;;;237.98;228.45;;;7.00;99.90;;;;;;5045701;28;20039;-78
2022/11/18 00:42:55;;;;;;;313.25;300.10;;;7.10;99.90;;;;;;5065031;28;20028;-77
2022/11/18 00:45:22;;;;;;;243.32;233.45;;;7.10;99.90;;;;;;5046746;28;20573;-79
2022/11/18 00:47:48;;;;;;;281.55;269.98;;;7.10;99.90;;;;;;5049838;28;20403;-80
2022/11/18 00:50:14;;;;;;;340.15;326.17;;;7.00;99.90;;;;;;5051201;28;20050;-78
2022/11/18 00:52:40;;;;;;;222.30;213.57;;;7.10;99.90;;;;;;5051000;28;20025;-77
2022/11/18 00:55:06;;;;;;;284.30;272.48;;;7.00;99.90;;;;;;5070893;28;20024;-79
2022/11/18 00:57:31;;;;;;;283.67;272.15;;;7.10;99.90;;;;;;5052280;28;20060;-77
2022/11/18 00:59:57;;;;;;;325.30;312.05;;;7.10;99.90;;;;;;5052362;28;20048;-77
2022/11/18 01:02:23;;;;;;;210.77;202.45;;;7.10;99.90;;;;;;5064762;28;20040;-76
2022/11/18 01:04:48;;;;;;;256.10;246.20;;;7.10;99.90;;;;;;5044668;28;20036;-77
2022/11/18 01:07:14;;;;;;;234.27;224.82;;;7.00;99.90;;;;;;5067601;28;20090;-78
2022/11/18 01:09:39;;;;;;;209.10;200.48;;;7.10;99.90;;;;;;5048129;28;20033;-79
2022/11/18 01:14:49;;;;;;;240.95;231.32;;;7.10;99.90;;;;;;5054974;28;20043;-77
2022/11/18 01:17:15;;;;;;;266.95;256.17;;;7.10;99.90;;;;;;5069113;28;20029;-78
2022/11/18 01:19:40;;;;;;;256.73;246.18;;;7.10;99.90;;;;;;5046895;28;20094;-79
2022/11/18 01:22:07;;;;;;;368.38;347.25;;;7.00;99.90;;;;;;5047879;28;20045;-81
2022/11/18 01:24:33;;;;;;;366.95;350.90;;;7.00;99.90;;;;;;5051489;28;20028;-78
2022/11/18 01:27:02;;;;;;;322.58;309.50;;;7.00;99.90;;;;;;5045092;28;20032;-80
2022/11/18 01:29:28;;;;;;;375.33;355.83;;;7.00;99.90;;;;;;5050818;28;20090;-77
2022/11/18 01:31:53;;;;;;;362.80;346.98;;;7.00;99.90;;;;;;5039703;28;20522;-78
2022/11/18 01:34:19;;;;;;;341.52;327.13;;;7.00;99.90;;;;;;5034645;28;20406;-78
2022/11/18 01:36:45;;;;;;;339.55;325.50;;;7.00;99.90;;;;;;5033378;28;20082;-77
2022/11/18 01:39:10;;;;;;;421.20;394.52;;;7.00;99.90;;;;;;5070059;28;20054;-81
2022/11/18 01:41:37;;;;;;;351.58;337.23;;;7.00;99.90;;;;;;5067163;28;20029;-77
2022/11/18 01:44:24;;;;;;;465.55;438.65;;;7.00;99.90;;;;;;5061058;28;20720;-77
2022/11/18 01:46:49;;;;;;;277.67;266.63;;;7.00;99.90;;;;;;5066405;28;20037;-77
2022/11/18 01:49:15;;;;;;;237.23;227.18;;;7.10;99.90;;;;;;5068594;28;20040;-77
2022/11/18 01:51:55;;;;;;;349.58;335.50;;;7.00;99.90;;;;;;5032555;28;20742;-78
2022/11/18 01:54:45;;;;;;;294.45;282.45;;;6.90;99.90;;;;;;5047661;28;20091;-78
2022/11/18 01:57:17;;;;;;;264.50;254.32;;;6.90;99.90;;;;;;5067078;28;20037;-79
2022/11/18 01:59:45;;;;;;;242.25;232.70;;;6.90;99.90;;;;;;5065300;28;20438;-80
2022/11/18 02:02:13;;;;;;;217.40;208.85;;;6.90;99.90;;;;;;5061966;28;20118;-77
2022/11/18 02:04:41;;;;;;;344.65;325.05;;;7.00;99.90;;;;;;5049754;28;20401;-78
2022/11/18 02:07:08;;;;;;;304.05;291.08;;;7.00;99.90;;;;;;5031855;28;20040;-77
2022/11/18 02:09:36;;;;;;;506.92;475.00;;;7.00;99.90;;;;;;5047055;28;20044;-78
2022/11/18 02:12:02;;;;;;;341.77;327.02;;;7.00;99.90;;;;;;5042398;28;20045;-78
2022/11/18 02:14:35;;;;;;;333.52;319.70;;;7.00;99.90;;;;;;5069111;28;20032;-81
2022/11/18 02:17:29;;;;;;;413.67;375.75;;;7.00;99.90;;;;;;5062852;28;20180;-79
2022/11/18 02:20:16;;;;;;;148.45;142.68;;;7.10;99.90;;;;;;5064928;28;20039;-79
2022/11/18 02:23:01;;;;;;;243.55;231.30;;;7.10;99.90;;;;;;5059932;28;20070;-80
2022/11/18 02:25:27;;;;;;;340.05;323.20;;;7.00;99.90;;;;;;5067817;28;20016;-81
2022/11/18 02:28:01;;;;;;;260.33;247.10;;;7.10;99.90;;;;;;5068976;28;20028;-79
2022/11/18 02:30:32;;;;;;;167.43;160.60;;;7.00;99.90;;;;;;5066685;28;20035;-81
2022/11/18 02:33:09;;;;;;;274.88;262.38;;;7.00;99.90;;;;;;5066775;28;20028;-77
2022/11/18 02:35:44;;;;;;;275.02;256.60;;;7.00;99.90;;;;;;5067642;28;20040;-80
2022/11/18 02:38:12;;;;;;;409.02;378.73;;;6.90;99.90;;;;;;5045216;28;20487;-78
2022/11/18 02:40:58;;;;;;;285.35;273.95;;;6.90;99.90;;;;;;5065191;28;20029;-81
2022/11/18 02:43:30;;;;;;;177.70;170.65;;;7.00;99.90;;;;;;5065027;28;20033;-78
2022/11/18 02:46:02;;;;;;;359.48;341.75;;;7.00;99.90;;;;;;5066911;28;20024;-82
2022/11/18 02:48:32;;;;;;;279.50;266.80;;;7.00;99.90;;;;;;5065085;28;20182;-77
2022/11/18 02:51:00;;;;;;;362.25;340.85;;;7.00;99.90;;;;;;5068500;28;20048;-78
2022/11/18 02:53:29;;;;;;;351.58;336.00;;;7.00;99.90;;;;;;5064612;28;20037;-78
2022/11/18 02:55:55;;;;;;;194.02;185.50;;;7.00;99.90;;;;;;5067632;28;20429;-80
2022/11/18 02:58:23;;;;;;;400.70;360.15;;;7.00;99.90;;;;;;5068328;28;20033;-80
2022/11/18 03:00:53;;;;;;;408.67;384.15;;;7.00;99.90;;;;;;5046121;28;20440;-80
2022/11/18 03:03:30;;;;;;;332.50;310.67;;;7.00;99.90;;;;;;5068385;28;20107;-79
2022/11/18 03:06:27;;;;;;;307.15;289.48;;;7.00;99.90;;;;;;5068390;28;20028;-79
2022/11/18 03:09:17;;;;;;;300.40;288.63;;;7.10;99.90;;;;;;5063100;28;20155;-81
2022/11/18 03:11:51;;;;;;;196.15;188.27;;;7.00;99.90;;;;;;5044741;28;20060;-78
2022/11/18 03:14:39;;;;;;;182.80;170.93;;;7.10;99.90;;;;;;5066723;28;20055;-81
2022/11/18 03:17:13;;;;;;;373.75;358.65;;;7.10;99.90;;;;;;5065840;28;20052;-81
2022/11/18 03:19:53;;;;;;;251.63;240.25;;;7.10;99.90;;;;;;5047027;28;20063;-79
2022/11/18 03:22:38;;;;;;;469.52;427.00;;;7.20;99.90;;;;;;5047466;28;20123;-81
2022/11/18 03:25:20;;;;;;;630.03;565.05;;;7.20;99.90;;;;;;5051097;28;20060;-78
2022/11/18 03:28:09;;;;;;;332.83;311.42;;;7.20;99.90;;;;;;5068326;28;20025;-81
2022/11/18 03:30:41;;;;;;;178.43;168.35;;;7.10;99.90;;;;;;5063998;28;20017;-80
2022/11/18 03:33:13;;;;;;;730.72;462.13;;;7.20;99.90;;;;;;5065203;28;20033;-81
2022/11/18 03:35:43;;;;;;;319.02;300.40;;;7.20;99.90;;;;;;5066693;28;20043;-83
2022/11/18 03:38:14;;;;;;;293.33;271.57;;;7.20;99.90;;;;;;5068170;28;20028;-80
2022/11/18 03:40:49;;;;;;;230.55;211.23;;;7.10;99.90;;;;;;5042804;28;20036;-80
2022/11/18 03:43:23;;;;;;;253.70;234.70;;;7.10;99.90;;;;;;5067515;28;20032;-80
2022/11/18 03:45:59;;;;;;;282.08;267.00;;;7.20;99.90;;;;;;5045919;28;20102;-80
2022/11/18 03:48:29;;;;;;;267.50;256.10;;;7.10;99.90;;;;;;5042111;28;20024;-80
2022/11/18 03:51:05;;;;;;;155.77;145.73;;;7.10;99.90;;;;;;5046310;28;20040;-79
2022/11/18 03:53:36;;;;;;;302.35;282.13;;;7.10;99.90;;;;;;5043705;28;20111;-80
2022/11/18 03:56:09;;;;;;;234.82;225.18;;;7.10;99.90;;;;;;5047412;28;20040;-80
2022/11/18 03:58:40;;;;;;;241.43;221.90;;;7.20;99.90;;;;;;5067923;28;20154;-81
2022/11/18 04:01:20;;;;;;;242.05;222.20;;;7.10;99.90;;;;;;5064266;28;20044;-80
2022/11/18 04:03:46;;;;;;;225.95;215.35;;;7.10;99.90;;;;;;5045327;28;20090;-79
2022/11/18 04:06:24;;;;;;;174.95;168.23;;;7.10;99.90;;;;;;5067370;28;20108;-79
2022/11/18 04:08:55;;;;;;;121.65;117.10;;;7.00;99.90;;;;;;5066963;28;20040;-80
2022/11/18 04:14:21;;;;;;;146.02;140.65;;;7.00;99.90;;;;;;5071526;28;20055;-80
2022/11/18 04:16:51;;;;;;;227.90;215.27;;;7.00;99.90;;;;;;5036160;28;20514;-80
2022/11/18 04:19:17;;;;;;;131.88;127.13;;;6.90;99.90;;;;;;5071145;28;20143;-80
2022/11/18 04:21:43;;;;;;;229.38;208.68;;;6.90;99.90;;;;;;5047646;28;20116;-80
2022/11/18 04:24:09;;;;;;;111.07;106.85;;;6.90;99.90;;;;;;5051424;28;20115;-76
2022/11/18 04:26:34;;;;;;;223.88;214.73;;;6.90;99.90;;;;;;5053207;28;20029;-79
2022/11/18 04:29:00;;;;;;;173.30;166.75;;;6.90;99.90;;;;;;5036521;28;20414;-81
2022/11/18 04:31:26;;;;;;;132.90;127.97;;;7.00;99.90;;;;;;5036198;28;20056;-80
2022/11/18 04:33:51;;;;;;;202.43;186.57;;;7.00;99.90;;;;;;5052138;28;20036;-79
2022/11/18 04:36:18;;;;;;;129.10;121.93;;;7.00;99.90;;;;;;5052869;28;20087;-81
2022/11/18 04:38:44;;;;;;;77.10;73.63;;;6.90;99.90;;;;;;5063271;28;20028;-79
2022/11/18 04:41:10;;;;;;;189.20;179.15;;;6.70;99.90;;;;;;5049365;28;20032;-80
2022/11/18 04:43:35;;;;;;;97.00;93.53;;;6.30;99.90;;;;;;5051844;28;20063;-80
2022/11/18 04:46:01;;;;;;;259.02;245.70;;;6.40;99.90;;;;;;5064837;28;20115;-82
2022/11/18 04:48:27;;;;;;;308.05;294.70;;;6.40;99.90;;;;;;5059507;28;20047;-82
2022/11/18 04:50:56;;;;;;;356.02;340.65;;;6.40;99.90;;;;;;5041552;28;20056;-77
2022/11/18 04:53:21;;;;;;;342.40;325.35;;;6.40;99.90;;;;;;5066645;28;20043;-81
2022/11/18 04:55:48;;;;;;;168.48;161.38;;;6.40;99.90;;;;;;5068092;28;20040;-80
2022/11/18 04:58:14;;;;;;;212.23;203.40;;;6.40;99.90;;;;;;5039745;28;20036;-78
2022/11/18 05:00:39;;;;;;;277.50;266.73;;;6.40;99.90;;;;;;5048787;28;20040;-80
2022/11/18 05:03:05;;;;;;;124.88;120.05;;;6.30;99.90;;;;;;5049768;28;20024;-78
2022/11/18 05:05:33;;;;;;;354.60;339.35;;;6.20;99.90;;;;;;5051057;28;20402;-79
2022/11/18 05:07:59;;;;;;;144.23;138.57;;;6.10;99.90;;;;;;5043801;28;20111;-79
2022/11/18 05:10:24;;;;;;;186.50;178.55;;;6.00;99.90;;;;;;5042398;28;20135;-80
2022/11/18 05:12:51;;;;;;;244.55;234.05;;;5.90;99.90;;;;;;5052784;28;20273;-80
2022/11/18 05:15:18;;;;;;;228.50;217.27;;;5.90;99.90;;;;;;5062671;28;20025;-82
2022/11/18 05:17:44;;;;;;;191.73;184.18;;;5.80;99.90;;;;;;5063844;28;20127;-79
2022/11/18 05:20:11;;;;;;;321.40;307.17;;;5.80;99.90;;;;;;5051626;28;20107;-80
2022/11/18 05:22:37;;;;;;;189.15;181.55;;;5.80;99.90;;;;;;5066730;28;20043;-78
2022/11/18 05:25:03;;;;;;;122.78;117.88;;;5.80;99.90;;;;;;5052070;28;20482;-82
2022/11/18 05:27:30;;;;;;;221.27;211.38;;;5.90;99.90;;;;;;5051593;28;20059;-80
2022/11/18 05:29:56;;;;;;;264.95;254.70;;;5.90;99.90;;;;;;5068217;28;20032;-82
2022/11/18 05:32:23;;;;;;;330.17;316.48;;;6.00;99.90;;;;;;5052268;28;20379;-81
2022/11/18 05:34:49;;;;;;;244.90;233.88;;;6.10;99.90;;;;;;5069823;28;20497;-80
2022/11/18 05:37:14;;;;;;;194.18;184.60;;;6.10;99.90;;;;;;5050424;28;20039;-81
2022/11/18 05:39:40;;;;;;;210.95;201.75;;;6.20;99.90;;;;;;5066057;28;20028;-83
2022/11/18 05:44:51;;;;;;;227.80;213.57;;;6.40;99.90;;;;;;5063786;28;20039;-89
2022/11/18 05:47:17;;;;;;;153.27;147.07;;;6.50;99.90;;;;;;5040729;28;20102;-82
2022/11/18 05:49:43;;;;;;;165.75;159.20;;;6.50;99.90;;;;;;5047053;28;20032;-80
2022/11/18 05:52:09;;;;;;;326.15;312.25;;;6.50;99.90;;;;;;5067058;28;20057;-85
2022/11/18 05:54:38;;;;;;;225.65;216.23;;;6.40;99.90;;;;;;5067031;28;20033;-82
2022/11/18 05:57:03;;;;;;;328.13;315.13;;;6.40;99.90;;;;;;5045144;28;20096;-83
2022/11/18 05:59:29;;;;;;;282.20;270.05;;;6.40;99.90;;;;;;5048117;28;20032;-86
2022/11/18 06:01:55;;;;;;;246.50;236.07;;;6.40;99.90;;;;;;5048437;28;20063;-80
2022/11/18 06:04:37;;;;;;;347.58;332.50;;;6.40;99.90;;;;;;5069531;28;20063;-81
2022/11/18 06:07:09;;;;;;;301.75;289.83;;;6.50;99.90;;;;;;5064986;28;20051;-80
2022/11/18 06:09:39;;;;;;;331.27;315.27;;;6.40;99.90;;;;;;5068353;28;20098;-82
2022/11/18 06:12:06;;;;;;;400.80;380.10;;;6.40;99.90;;;;;;5048314;28;20098;-79
2022/11/18 06:14:43;;;;;;;120.90;116.20;;;6.40;99.90;;;;;;5070300;28;20090;-78
2022/11/18 06:17:15;;;;;;;172.00;163.05;;;6.40;99.90;;;;;;5046118;28;20099;-78
2022/11/18 06:19:41;;;;;;;205.05;195.45;;;6.40;99.90;;;;;;5068449;28;20028;-78
2022/11/18 06:22:08;;;;;;;137.27;129.52;;;6.30;99.90;;;;;;5069641;28;20391;-78
2022/11/18 06:24:41;;;;;;;194.23;184.93;;;6.30;99.90;;;;;;5049963;28;20032;-81
2022/11/18 06:27:07;;;;;;;127.20;121.38;;;6.30;99.90;;;;;;5066874;28;20043;-80
2022/11/18 06:29:33;;;;;;;190.77;182.88;;;6.30;99.90;;;;;;5065971;28;20086;-79
2022/11/18 06:31:59;;;;;;;332.42;318.45;;;6.40;99.90;;;;;;5051389;28;20087;-77
2022/11/18 06:34:24;;;;;;;193.75;183.93;;;6.40;99.90;;;;;;5017743;28;20037;-77
2022/11/18 06:36:50;;;;;;;285.20;273.65;;;6.30;99.90;;;;;;5050236;28;20169;-79
2022/11/18 06:39:15;;;;;;;218.75;209.68;;;6.40;99.90;;;;;;5069195;28;20435;-80
2022/11/18 06:41:41;;;;;;;153.88;147.40;;;6.40;99.90;;;;;;5044753;28;20058;-79
2022/11/18 06:44:07;;;;;;;180.80;173.50;;;6.40;99.90;;;;;;5068933;28;20024;-78
2022/11/18 06:49:16;;;;;;;283.52;267.23;;;6.40;99.90;;;;;;5071520;28;20114;-77
2022/11/18 06:51:42;;;;;;;297.17;285.20;;;6.50;99.90;;;;;;5046937;28;20182;-78
2022/11/18 06:54:08;;;;;;;301.70;289.55;;;6.50;99.90;;;;;;5037978;28;20036;-77
2022/11/18 06:56:34;;;;;;;297.88;286.35;;;6.50;99.90;;;;;;5050348;28;20518;-77
2022/11/18 06:59:00;;;;;;;251.48;241.57;;;6.60;99.90;;;;;;5068866;28;20052;-76
2022/11/18 07:01:30;;;;;;;254.52;244.07;;;6.60;99.90;;;;;;5047059;28;20056;-78
2022/11/18 07:03:57;;;;;;;;;;;6.60;99.90;;;;;;5050964;28;20097;-76
2022/11/18 07:06:25;;;;;;;115.55;111.28;;;6.60;99.90;;;;;;5068321;28;19976;-78
2022/11/18 07:08:51;;;;;;;136.20;130.60;;;6.70;99.90;;;;;;5049981;28;20433;-77
2022/11/18 07:11:20;;;;;;;237.80;227.82;;;6.70;99.90;;;;;;5068423;28;20066;-80
2022/11/18 07:13:46;;;;;;;170.93;164.50;;;6.70;99.90;;;;;;5068516;28;20033;-78
2022/11/18 07:16:17;;;;;;;242.48;233.30;;;6.70;99.90;;;;;;5069343;28;20039;-76
2022/11/18 07:18:44;;;;;;;225.20;216.35;;;6.70;99.90;;;;;;5064432;28;20055;-77
2022/11/18 07:21:15;;;;;;;210.32;202.18;;;6.70;99.90;;;;;;5068223;28;20021;-78
2022/11/18 07:23:41;;;;;;;165.75;155.07;;;6.70;99.90;;;;;;5047845;28;20024;-78
2022/11/18 07:26:07;;;;;;;277.42;266.63;;;6.70;99.90;;;;;;5067538;28;20493;-78
2022/11/18 07:28:33;;;;;;;287.80;275.88;;;6.80;99.90;;;;;;5067961;28;20040;-78
2022/11/18 07:31:08;;;;;;;179.65;172.75;;;6.80;99.90;;;;;;5049854;28;20036;-78
2022/11/18 07:33:34;;;;;;;200.15;192.32;;;6.80;99.90;;;;;;5064382;28;20035;-77
2022/11/18 07:36:22;;;;;;;174.70;167.75;;;6.80;99.90;;;;;;5050263;28;20111;-78
2022/11/18 07:38:48;;;;;;;214.93;206.77;;;6.80;99.90;;;;;;5064441;28;20574;-78
2022/11/18 07:41:16;;;;;;;163.98;157.73;;;6.80;99.90;;;;;;5070502;28;20051;-78
2022/11/18 07:43:43;;;;;;;183.10;172.02;;;6.70;99.90;;;;;;5048568;28;20120;-77
2022/11/18 07:46:17;;;;;;;220.50;211.82;;;6.70;99.90;;;;;;5050139;28;20040;-79
2022/11/18 07:48:44;;;;;;;215.18;205.40;;;6.70;99.90;;;;;;5071970;28;20025;-76
2022/11/18 07:51:12;;;;;;;250.15;238.18;;;6.70;99.90;;;;;;5067618;28;20049;-77
2022/11/18 07:53:38;;;;;;;275.42;258.55;;;6.70;99.90;;;;;;5058460;28;20060;-76
2022/11/18 07:56:05;;;;;;;290.92;265.00;;;6.60;99.90;;;;;;5065959;28;20063;-78
2022/11/18 07:58:30;;;;;;;227.52;217.10;;;6.60;99.90;;;;;;5044136;28;20025;-78
2022/11/18 08:00:57;;;;;;;254.90;240.35;;;6.70;99.90;;;;;;5021858;28;20021;-76
2022/11/18 08:03:27;;;;;;;238.32;227.98;;;6.80;99.90;;;;;;5061665;28;20116;-77
2022/11/18 08:05:58;;;;;;;217.20;208.45;;;6.80;99.90;;;;;;5027338;28;20041;-76
2022/11/18 08:08:24;;;;;;;181.85;174.90;;;7.00;99.90;;;;;;5060261;28;20032;-76
2022/11/18 08:10:49;;;;;;;240.85;230.60;;;7.00;99.90;;;;;;5040341;28;20103;-79
2022/11/18 08:13:15;;;;;;;146.63;141.38;;;7.00;99.90;;;;;;5064583;28;20058;-77
2022/11/18 08:15:42;;;;;;;187.27;179.75;;;7.10;99.90;;;;;;5039830;28;20399;-77
2022/11/18 08:18:07;;;;;;;167.85;161.38;;;7.00;99.90;;;;;;5041960;28;20045;-78
2022/11/18 08:20:34;;;;;;;212.93;200.88;;;7.00;99.90;;;;;;5029524;28;20032;-78
2022/11/18 08:23:00;;;;;;;296.80;278.83;;;6.90;99.90;;;;;;5054671;28;20483;-78
2022/11/18 08:25:25;;;;;;;342.45;306.92;;;7.00;99.90;;;;;;5041624;28;20035;-78
2022/11/18 08:27:51;;;;;;;187.07;177.27;;;7.00;99.90;;;;;;5043222;28;20380;-77
2022/11/18 08:30:17;;;;;;;129.15;123.97;;;7.10;99.90;;;;;;5058182;28;20037;-78
2022/11/18 08:32:43;;;;;;;207.40;188.02;;;7.00;99.90;;;;;;5036370;28;20028;-79
2022/11/18 08:35:09;;;;;;;147.00;141.50;;;7.00;99.90;;;;;;5057905;28;20648;-77
2022/11/18 08:37:34;;;;;;;187.55;169.20;;;7.00;99.90;;;;;;5061191;28;20028;-77
2022/11/18 08:40:00;;;;;;;120.57;116.25;;;6.90;99.90;;;;;;5034911;28;20478;-78
2022/11/18 08:42:25;;;;;;;139.05;133.75;;;6.90;99.90;;;;;;5040488;28;20040;-77
2022/11/18 08:44:51;;;;;;;276.63;261.20;;;6.80;99.90;;;;;;5025573;28;20029;-78
2022/11/18 08:47:17;;;;;;;207.60;199.70;;;6.80;99.90;;;;;;5038551;28;20128;-77
2022/11/18 08:49:44;;;;;;;331.67;312.90;;;6.90;99.90;;;;;;5065089;28;20064;-77
2022/11/18 08:52:09;;;;;;;205.82;197.90;;;6.90;99.90;;;;;;5055365;28;20142;-78
2022/11/18 08:54:35;;;;;;;238.70;229.55;;;6.90;99.90;;;;;;5053182;28;20438;-78
2022/11/18 08:57:01;;;;;;;150.52;145.15;;;6.90;99.90;;;;;;5062215;28;20517;-78
2022/11/18 08:59:26;;;;;;;124.15;119.18;;;6.90;99.90;;;;;;5055680;28;20025;-79
2022/11/18 09:01:52;;;;;;;100.60;96.82;;;6.90;99.90;;;;;;5056070;28;20372;-78
2022/11/18 09:04:18;;;;;;;227.27;211.98;;;6.90;99.90;;;;;;5058949;28;20514;-78
2022/11/18 09:06:43;;;;;;;114.35;110.15;;;6.90;99.90;;;;;;5051579;28;20037;-78
2022/11/18 09:09:09;;;;;;;99.05;95.55;;;6.90;99.90;;;;;;5026408;28;20800;-78
2022/11/18 09:11:37;;;;;;;185.13;176.18;;;6.90;99.90;;;;;;5056876;28;20043;-78
2022/11/18 09:14:03;;;;;;;105.00;101.28;;;7.00;99.90;;;;;;5042620;28;20493;-78
2022/11/18 09:16:30;;;;;;;91.40;87.95;;;7.00;99.90;;;;;;5036533;28;20033;-81
2022/11/18 09:18:57;;;;;;;116.95;109.05;;;7.00;99.90;;;;;;5063276;28;20035;-78
2022/11/18 09:21:24;;;;;;;106.60;102.78;;;7.10;99.90;;;;;;5034854;28;20017;-78
2022/11/18 09:23:51;;;;;;;109.57;103.50;;;7.10;99.90;;;;;;5055724;28;20021;-77
2022/11/18 09:26:22;;;;;;;103.45;98.40;;;7.30;99.90;;;;;;5058674;28;20037;-77
2022/11/18 09:28:51;;;;;;;91.93;88.15;;;7.40;99.90;;;;;;5026593;28;20035;-78
2022/11/18 09:31:17;;;;;;;56.72;54.63;;;7.50;99.90;;;;;;5054025;28;20076;-78
2022/11/18 09:33:43;;;;;;;131.27;126.57;;;7.70;99.90;;;;;;5033213;28;20132;-77
2022/11/18 09:36:23;;;;;;;118.13;112.63;;;7.80;99.90;;;;;;5062236;28;20111;-79
2022/11/18 09:38:50;;;;;;;256.90;215.60;;;7.90;99.90;;;;;;5052382;28;20021;-78
2022/11/18 09:41:51;;;;;;;249.27;228.77;;;7.80;99.90;;;;;;5057455;28;20037;-77
2022/11/18 09:44:22;;;;;;;48.55;46.75;;;7.80;99.90;;;;;;5059090;28;20112;-80
2022/11/18 09:47:11;;;;;;;88.05;80.97;;;7.90;99.90;;;;;;5059509;28;20021;-78
2022/11/18 09:49:39;;;;;;;95.20;89.03;;;7.90;99.90;;;;;;5028986;28;20383;-78
2022/11/18 09:52:17;;;;;;;53.97;51.90;;;7.80;99.90;;;;;;5057315;28;20053;-78
2022/11/18 09:54:43;;;;;;;72.10;69.55;;;7.90;99.90;;;;;;5052127;28;20024;-78
2022/11/18 09:58:04;;;;;;;92.95;89.50;;;7.80;99.90;;;;;;5043520;28;20043;-78
2022/11/18 10:00:30;;;;;;;41.85;40.22;;;7.70;99.90;;;;;;4976451;28;20096;-80
2022/11/18 10:03:05;;;;;;;72.03;69.35;;;7.70;99.90;;;;;;5030447;28;20033;-81
2022/11/18 10:06:10;;;;;;;79.25;74.25;;;7.80;99.90;;;;;;5039258;28;20044;-82
2022/11/18 10:08:42;;;;;;;35.88;34.50;;;7.80;99.90;;;;;;5017519;28;20036;-80
2022/11/18 10:11:19;;;;;;;59.42;57.00;;;7.90;99.90;;;;;;5057286;28;20039;-78
2022/11/18 10:14:26;;;;;;;36.60;35.15;;;7.80;99.90;;;;;;5058430;28;20364;-77
2022/11/18 10:17:07;;;;;;;71.32;64.28;;;7.90;99.90;;;;;;5032651;28;20110;-78
2022/11/18 10:19:51;;;;;;;74.05;71.25;;;7.80;99.90;;;;;;5056640;28;20021;-77
2022/11/18 10:22:31;;;;;;;43.63;41.92;;;8.00;99.90;;;;;;5036489;28;20030;-76
2022/11/18 10:24:59;;;;;;;33.25;31.98;;;8.00;99.90;;;;;;5057563;28;20051;-79
2022/11/18 10:27:39;;;;;;;43.50;41.20;;;7.90;99.90;;;;;;5059271;28;20060;-78
2022/11/18 10:30:17;;;;;;;15.35;14.65;;;7.80;99.90;;;;;;5034795;28;20060;-77
2022/11/18 10:33:16;;;;;;;65.63;61.30;;;7.80;99.90;;;;;;5059334;28;20066;-79
2022/11/18 10:35:43;;;;;;;56.60;54.08;;;7.70;99.90;;;;;;5040865;28;20033;-77
2022/11/18 10:38:12;;;;;;;144.35;134.95;;;7.60;99.90;;;;;;5054987;28;20029;-77
2022/11/18 10:40:59;;;;;;;90.47;86.70;;;7.50;99.90;;;;;;5041671;28;20549;-78
2022/11/18 10:43:50;;;;;;;127.80;123.18;;;7.50;99.90;;;;;;5046749;28;20048;-77
2022/11/18 10:46:40;;;;;;;141.77;136.55;;;7.50;99.90;;;;;;5034676;28;20033;-79
2022/11/18 10:49:11;;;;;;;106.65;98.63;;;7.80;99.90;;;;;;5064488;28;20179;-79
2022/11/18 10:51:38;;;;;;;131.48;123.30;;;7.60;99.90;;;;;;5054100;28;20045;-77
2022/11/18 10:54:16;;;;;;;129.20;124.30;;;7.40;99.90;;;;;;5036565;28;20028;-79
2022/11/18 10:56:51;;;;;;;150.15;144.30;;;7.40;99.90;;;;;;5041109;28;20060;-77
2022/11/18 10:59:35;;;;;;;170.73;162.65;;;7.50;99.90;;;;;;5056837;28;20025;-78
2022/11/18 11:02:22;;;;;;;172.10;164.23;;;7.70;99.90;;;;;;5029736;28;20397;-78
2022/11/18 11:04:50;;;;;;;164.30;157.85;;;7.80;99.90;;;;;;5059247;28;20037;-80
2022/11/18 11:07:26;;;;;;;141.98;136.77;;;8.10;99.90;;;;;;5022835;28;20033;-78
2022/11/18 11:10:13;;;;;;;130.25;124.18;;;8.30;99.90;;;;;;5053658;28;20495;-78
2022/11/18 11:12:48;;;;;;;118.50;113.80;;;8.60;99.90;;;;;;5026653;28;20016;-77
2022/11/18 11:15:24;;;;;;;227.70;215.75;;;8.70;99.90;;;;;;5058298;28;20025;-77
2022/11/18 11:21:21;;;;;;;54.80;51.50;;;8.90;99.90;;;;;;5053591;28;20535;-77
2022/11/18 11:23:47;;;;;;;105.13;101.32;;;9.10;99.90;;;;;;5031477;28;20025;-78
2022/11/18 11:26:27;;;;;;;24.13;23.13;;;9.10;99.90;;;;;;5059843;28;20051;-78
2022/11/18 11:29:11;;;;;;;45.72;43.85;;;9.00;99.90;;;;;;5052340;28;20064;-77
2022/11/18 11:31:48;;;;;;;55.92;53.53;;;9.00;99.90;;;;;;5034656;28;20029;-78
2022/11/18 11:34:54;;;;;;;62.97;56.83;;;9.10;99.90;;;;;;5061144;28;20133;-78
2022/11/18 11:37:32;;;;;;;30.00;28.80;;;9.10;99.90;;;;;;4994582;28;20048;-78
2022/11/18 11:40:22;;;;;;;29.60;28.45;;;8.80;99.90;;;;;;5052782;28;20033;-78
2022/11/18 11:43:18;;;;;;;33.25;31.90;;;8.90;99.90;;;;;;5058486;28;20045;-78
2022/11/18 11:45:44;;;;;;;23.05;22.15;;;9.00;99.90;;;;;;5035676;28;20175;-77
2022/11/18 11:48:41;;;;;;;30.98;29.77;;;9.10;99.90;;;;;;5058829;28;20104;-77
2022/11/18 11:51:23;;;;;;;53.65;49.63;;;8.90;99.90;;;;;;5035669;28;20067;-77
2022/11/18 11:54:36;;;;;;;75.93;62.70;;;9.10;99.90;;;;;;5048689;28;20044;-79
2022/11/18 11:57:02;;;;;;;22.67;21.73;;;9.50;99.90;;;;;;4993924;28;20072;-78
2022/11/18 11:59:58;;;;;;;16.77;16.08;;;10.00;99.90;;;;;;5052685;28;20094;-77
2022/11/18 12:03:07;;;;;;;26.67;25.48;;;10.10;99.90;;;;;;5058850;28;20024;-79
2022/11/18 12:05:39;;;;;;;18.42;17.63;;;10.10;99.90;;;;;;5032742;28;20044;-78
2022/11/18 12:08:07;;;;;;;20.88;20.08;;;9.90;99.90;;;;;;5030905;28;20055;-79
2022/11/18 12:10:51;;;;;;;27.73;26.73;;;10.00;99.90;;;;;;5057703;28;20059;-77
2022/11/18 12:13:44;;;;;;;54.92;49.75;;;10.00;99.90;;;;;;5038770;28;20807;-78
2022/11/18 12:16:40;;;;;;;61.85;32.13;;;9.70;99.90;;;;;;5018187;28;20037;-77
2022/11/18 12:19:13;;;;;;;23.55;22.65;;;9.70;99.90;;;;;;5051642;28;20036;-77
2022/11/18 12:21:45;;;;;;;43.22;41.28;;;9.80;99.90;;;;;;5053044;28;20032;-78
2022/11/18 12:24:16;;;;;;;25.73;24.80;;;9.70;99.90;;;;;;5038844;28;20503;-78
2022/11/18 12:26:44;;;;;;;24.90;23.90;;;9.60;99.90;;;;;;5058064;28;20123;-81
2022/11/18 12:29:22;;;;;;;18.90;18.08;;;9.30;99.90;;;;;;5057893;28;20040;-79
2022/11/18 12:31:53;;;;;;;25.00;24.02;;;9.20;99.90;;;;;;5035669;28;20040;-78
2022/11/18 12:34:25;;;;;;;21.63;20.73;;;9.10;99.90;;;;;;5066852;28;20063;-79
2022/11/18 12:36:52;;;;;;;16.90;16.17;;;9.00;99.90;;;;;;5056219;28;20095;-79
2022/11/18 12:39:23;;;;;;;21.33;20.48;;;8.80;99.90;;;;;;5054460;28;20033;-81
2022/11/18 12:44:48;;;;;;;28.40;27.30;;;9.00;99.90;;;;;;5058787;28;20044;-78
2022/11/18 12:47:35;;;;;;;46.58;43.95;;;8.80;99.90;;;;;;5039097;28;20044;-78
2022/11/18 12:50:14;;;;;;;23.85;22.85;;;8.90;99.90;;;;;;5057219;28;20372;-79
2022/11/18 12:52:40;;;;;;;11.43;10.93;;;9.50;99.90;;;;;;5040690;28;20505;-79
2022/11/18 12:55:32;;;;;;;19.25;18.30;;;9.50;99.90;;;;;;5051891;28;20156;-78
2022/11/18 12:57:58;;;;;;;26.77;25.48;;;9.40;99.90;;;;;;5028705;28;20040;-77
2022/11/18 13:00:23;;;;;;;25.27;24.27;;;9.30;99.00;;;;;;5042653;28;20390;-79
2022/11/18 13:02:54;;;;;;;9.27;8.88;;;9.60;99.90;;;;;;5050174;28;20127;-78